Time;durP1;ratioP1;P1;durP2;ratioP2;P2;SDS_P1;SDS_P2;PMS_P1;PMS_P2;Temp;Humidity;BMP_temperature;BMP_pressure;BME280_temperature;BME280_humidity;BME280_pressure;Samples;Min_cycle;Max_cycle;Signal;HPM_P1;HPM_P2
2021/11/29 00:00:49;;;;;;;36.72;16.98;;;0.90;99.90;;;;;;4972512;28;20500;-81
2021/11/29 00:03:15;;;;;;;31.17;14.32;;;0.80;99.90;;;;;;4987290;28;20108;-81
2021/11/29 00:05:40;;;;;;;28.80;14.27;;;0.90;99.90;;;;;;4975108;28;20177;-80
2021/11/29 00:08:06;;;;;;;35.20;15.45;;;0.90;99.90;;;;;;4988055;28;20461;-80
2021/11/29 00:10:32;;;;;;;29.48;13.77;;;0.90;99.90;;;;;;4996744;28;20125;-80
2021/11/29 00:13:00;;;;;;;31.67;13.40;;;0.80;99.90;;;;;;4966338;28;20513;-80
2021/11/29 00:15:26;;;;;;;26.80;11.57;;;0.70;99.90;;;;;;4972934;28;20045;-80
2021/11/29 00:17:51;;;;;;;25.92;11.82;;;0.80;99.90;;;;;;4974254;28;20489;-80
2021/11/29 00:20:17;;;;;;;35.25;12.52;;;0.80;99.90;;;;;;4987278;28;20117;-81
2021/11/29 00:22:43;;;;;;;26.92;12.02;;;0.70;99.90;;;;;;4986527;28;20258;-81
2021/11/29 00:25:09;;;;;;;30.63;12.45;;;0.70;99.90;;;;;;4985845;28;20088;-81
2021/11/29 00:27:35;;;;;;;24.02;11.18;;;0.70;99.90;;;;;;4978386;28;20136;-82
2021/11/29 00:30:00;;;;;;;23.70;10.80;;;0.70;99.90;;;;;;4976667;28;20512;-81
2021/11/29 00:32:26;;;;;;;19.00;9.90;;;0.70;99.90;;;;;;4977959;28;20099;-81
2021/11/29 00:34:52;;;;;;;22.15;11.25;;;0.60;99.90;;;;;;4985957;28;20407;-81
2021/11/29 00:37:17;;;;;;;19.67;8.98;;;0.60;99.90;;;;;;4999383;28;20553;-82
2021/11/29 00:39:43;;;;;;;20.20;10.00;;;0.50;99.90;;;;;;5002372;28;20396;-81
2021/11/29 00:42:08;;;;;;;21.23;10.05;;;0.50;99.90;;;;;;4974553;28;20437;-82
2021/11/29 00:44:34;;;;;;;21.05;10.30;;;0.50;99.90;;;;;;4999435;28;20034;-80
2021/11/29 00:47:00;;;;;;;16.52;8.90;;;0.50;99.90;;;;;;4975656;28;20404;-82
2021/11/29 00:49:25;;;;;;;17.75;9.55;;;0.40;99.90;;;;;;4989025;28;20060;-82
2021/11/29 00:51:51;;;;;;;22.38;9.48;;;0.30;99.90;;;;;;4987066;28;20037;-80
2021/11/29 00:54:16;;;;;;;19.50;9.13;;;0.40;99.90;;;;;;4988580;28;20049;-79
2021/11/29 00:56:42;;;;;;;19.60;10.20;;;0.40;99.90;;;;;;5005712;28;20125;-80
2021/11/29 00:59:08;;;;;;;12.63;8.07;;;0.50;99.90;;;;;;4990144;28;20041;-80
2021/11/29 01:01:34;;;;;;;16.52;8.60;;;0.40;99.90;;;;;;4986815;28;20029;-80
2021/11/29 01:04:00;;;;;;;17.33;9.05;;;0.50;99.90;;;;;;4975515;28;20033;-80
2021/11/29 01:06:26;;;;;;;19.17;8.23;;;0.50;99.90;;;;;;4974151;28;20446;-80
2021/11/29 01:08:51;;;;;;;18.17;8.05;;;0.40;99.90;;;;;;5004698;28;20057;-80
2021/11/29 01:11:17;;;;;;;15.73;7.72;;;0.40;99.90;;;;;;4985028;28;20030;-80
2021/11/29 01:13:42;;;;;;;15.38;8.77;;;0.40;99.90;;;;;;5003028;28;20041;-80
2021/11/29 01:16:09;;;;;;;15.27;5.05;;;0.30;99.90;;;;;;4986377;28;20026;-80
2021/11/29 01:18:34;;;;;;;17.23;8.02;;;0.30;99.90;;;;;;5003752;28;20045;-80
2021/11/29 01:21:00;;;;;;;17.50;8.15;;;0.30;99.90;;;;;;4989211;28;20547;-80
2021/11/29 01:23:25;;;;;;;13.13;7.03;;;0.20;99.90;;;;;;5003993;28;20410;-80
2021/11/29 01:25:53;;;;;;;14.38;8.10;;;0.10;99.90;;;;;;5002298;28;20037;-80
2021/11/29 01:28:19;;;;;;;16.63;8.52;;;0.10;99.90;;;;;;4978876;28;20104;-80
2021/11/29 01:30:44;;;;;;;25.55;7.88;;;0.00;99.90;;;;;;4978919;28;20129;-80
2021/11/29 01:33:13;;;;;;;15.38;7.20;;;0.00;99.90;;;;;;4984405;28;20040;-80
2021/11/29 01:35:39;;;;;;;15.05;7.03;;;-0.20;99.90;;;;;;4978405;28;20053;-81
2021/11/29 01:38:04;;;;;;;16.48;7.00;;;0.00;99.90;;;;;;4995000;28;20512;-81
2021/11/29 01:40:30;;;;;;;22.45;9.27;;;0.00;99.90;;;;;;4994307;28;20026;-81
2021/11/29 01:43:01;;;;;;;18.85;8.32;;;0.10;99.90;;;;;;4993615;28;20390;-81
2021/11/29 01:45:30;;;;;;;21.33;7.30;;;0.00;99.90;;;;;;5010417;28;22057;-81
2021/11/29 01:47:55;;;;;;;14.48;7.63;;;0.00;99.90;;;;;;4969951;28;20030;-81
2021/11/29 01:50:21;;;;;;;19.48;7.55;;;0.10;99.90;;;;;;4990872;28;20072;-81
2021/11/29 01:52:48;;;;;;;17.65;6.65;;;0.20;99.90;;;;;;4987131;28;20030;-81
2021/11/29 01:55:13;;;;;;;14.48;7.10;;;0.20;99.90;;;;;;4984606;28;20030;-82
2021/11/29 01:57:39;;;;;;;18.75;7.72;;;0.20;99.90;;;;;;4978921;28;20473;-82
2021/11/29 02:00:07;;;;;;;16.88;8.05;;;0.20;99.90;;;;;;5007436;28;20026;-81
2021/11/29 02:02:32;;;;;;;17.52;7.28;;;0.00;99.90;;;;;;4979920;28;20105;-81
2021/11/29 02:04:59;;;;;;;14.93;6.70;;;0.00;99.90;;;;;;4976627;28;20458;-81
2021/11/29 02:07:25;;;;;;;14.20;7.50;;;0.10;99.90;;;;;;4978783;28;20044;-81
2021/11/29 02:09:51;;;;;;;13.07;6.45;;;0.00;99.90;;;;;;5002173;28;20551;-81
2021/11/29 02:12:18;;;;;;;13.10;6.72;;;-0.10;99.90;;;;;;4993305;28;20030;-81
2021/11/29 02:14:46;;;;;;;11.93;6.55;;;-0.10;99.90;;;;;;5003148;28;20035;-81
2021/11/29 02:17:12;;;;;;;13.40;7.75;;;-0.10;99.90;;;;;;4994733;28;20521;-81
2021/11/29 02:19:39;;;;;;;10.63;5.93;;;-0.10;99.90;;;;;;5010467;28;20069;-82
2021/11/29 02:22:04;;;;;;;11.65;5.85;;;0.00;99.90;;;;;;5009275;28;20084;-81
2021/11/29 02:24:30;;;;;;;9.15;5.22;;;0.00;99.90;;;;;;4986832;28;20030;-81
2021/11/29 02:26:55;;;;;;;11.00;6.43;;;0.00;99.90;;;;;;4990900;28;20030;-81
2021/11/29 02:29:21;;;;;;;16.67;7.35;;;0.00;99.90;;;;;;4993997;28;20049;-81
2021/11/29 02:31:48;;;;;;;4.47;2.85;;;-0.10;99.90;;;;;;4988413;28;20030;-81
2021/11/29 02:34:25;;;;;;;13.25;5.32;;;-0.10;99.90;;;;;;4992953;28;20034;-81
2021/11/29 02:36:51;;;;;;;8.23;4.00;;;0.00;99.90;;;;;;4973288;28;20029;-81
2021/11/29 02:39:17;;;;;;;10.02;5.03;;;-0.10;99.90;;;;;;4991856;28;20037;-81
2021/11/29 02:41:43;;;;;;;7.53;5.03;;;-0.10;99.90;;;;;;4990114;28;20099;-81
2021/11/29 02:44:08;;;;;;;9.68;5.32;;;-0.10;99.90;;;;;;4990852;28;20136;-82
2021/11/29 02:46:34;;;;;;;15.68;8.02;;;-0.20;99.90;;;;;;4975560;28;20036;-81
2021/11/29 02:49:00;;;;;;;2.60;2.30;;;0.00;99.90;;;;;;5007168;28;20042;-81
2021/11/29 02:51:43;;;;;;;10.05;5.93;;;-0.10;99.90;;;;;;4991661;28;20124;-81
2021/11/29 02:54:17;;;;;;;9.85;6.28;;;0.00;99.90;;;;;;5002411;28;20121;-81
2021/11/29 02:56:46;;;;;;;11.85;6.43;;;0.00;99.90;;;;;;5006151;28;20497;-81
2021/11/29 02:59:13;;;;;;;15.85;6.95;;;0.10;99.90;;;;;;4977364;28;20037;-82
2021/11/29 03:01:39;;;;;;;11.02;6.32;;;0.10;99.90;;;;;;5009558;28;20120;-81
2021/11/29 03:04:05;;;;;;;8.40;5.70;;;0.00;99.90;;;;;;5009345;28;20083;-81
2021/11/29 03:06:30;;;;;;;11.27;6.18;;;0.00;99.90;;;;;;4991371;28;20049;-82
2021/11/29 03:08:56;;;;;;;14.85;7.32;;;0.00;99.90;;;;;;4986658;28;20030;-81
2021/11/29 03:11:22;;;;;;;10.80;5.55;;;0.10;99.90;;;;;;5006604;28;20037;-81
2021/11/29 03:13:47;;;;;;;11.65;7.32;;;0.10;99.90;;;;;;4971443;28;20096;-80
2021/11/29 03:16:13;;;;;;;10.85;5.05;;;0.00;99.90;;;;;;5009195;28;20037;-80
2021/11/29 03:18:40;;;;;;;10.88;5.18;;;-0.10;99.90;;;;;;4976012;28;20029;-80
2021/11/29 03:21:06;;;;;;;10.10;5.13;;;-0.10;99.90;;;;;;5001037;28;20053;-80
2021/11/29 03:23:32;;;;;;;12.60;6.28;;;-0.10;99.90;;;;;;4972418;28;20439;-80
2021/11/29 03:25:58;;;;;;;8.80;3.97;;;-0.10;99.90;;;;;;4986061;28;20034;-80
2021/11/29 03:28:23;;;;;;;10.88;6.45;;;-0.10;99.90;;;;;;4990971;28;20116;-80
2021/11/29 03:30:49;;;;;;;5.47;3.08;;;-0.10;99.90;;;;;;5004639;28;20104;-80
2021/11/29 03:33:15;;;;;;;5.35;3.20;;;-0.10;99.90;;;;;;4973396;28;20359;-80
2021/11/29 03:35:41;;;;;;;7.18;4.50;;;-0.30;99.90;;;;;;5009296;28;20029;-80
2021/11/29 03:38:07;;;;;;;8.80;5.10;;;-0.20;99.90;;;;;;5007520;28;20116;-80
2021/11/29 03:40:32;;;;;;;11.57;5.93;;;-0.20;99.90;;;;;;4987524;28;20129;-80
2021/11/29 03:42:58;;;;;;;5.50;2.97;;;-0.30;99.90;;;;;;5004405;28;20026;-80
2021/11/29 03:45:23;;;;;;;12.68;5.90;;;-0.30;99.90;;;;;;4971341;28;20041;-78
2021/11/29 03:47:49;;;;;;;9.75;6.38;;;-0.20;99.90;;;;;;4988739;28;20022;-78
2021/11/29 03:50:15;;;;;;;9.75;6.57;;;-0.20;99.90;;;;;;4989808;28;20056;-78
2021/11/29 03:52:40;;;;;;;7.55;3.25;;;-0.10;99.90;;;;;;4976736;28;20030;-78
2021/11/29 03:55:06;;;;;;;13.00;7.15;;;-0.20;99.90;;;;;;4978147;28;20051;-78
2021/11/29 03:57:31;;;;;;;15.07;6.20;;;-0.20;99.90;;;;;;4989285;28;20061;-78
2021/11/29 03:59:57;;;;;;;7.80;5.68;;;-0.20;99.90;;;;;;4985813;28;20026;-78
2021/11/29 04:02:23;;;;;;;7.93;4.80;;;-0.10;99.90;;;;;;5006692;28;20030;-80
2021/11/29 04:04:48;;;;;;;8.70;4.68;;;-0.10;99.90;;;;;;4977241;28;20080;-78
2021/11/29 04:07:14;;;;;;;7.55;4.50;;;0.00;99.90;;;;;;4992486;28;20092;-78
2021/11/29 04:09:39;;;;;;;5.28;4.43;;;0.00;99.90;;;;;;4969635;28;20029;-79
2021/11/29 04:12:06;;;;;;;6.88;4.68;;;0.10;99.90;;;;;;4987576;28;20398;-78
2021/11/29 04:14:31;;;;;;;9.38;5.15;;;0.10;99.90;;;;;;4999248;28;20040;-79
2021/11/29 04:16:57;;;;;;;7.22;4.18;;;0.10;99.90;;;;;;4987411;28;20116;-81
2021/11/29 04:19:22;;;;;;;8.07;4.95;;;0.10;99.90;;;;;;4976356;28;20460;-79
2021/11/29 04:21:48;;;;;;;7.47;5.22;;;0.00;99.90;;;;;;5006661;28;20032;-78
2021/11/29 04:24:15;;;;;;;7.03;3.72;;;0.00;99.90;;;;;;4977047;28;20033;-78
2021/11/29 04:26:42;;;;;;;3.17;1.95;;;0.00;99.90;;;;;;5006571;28;20108;-78
2021/11/29 04:29:17;;;;;;;7.28;4.90;;;0.00;99.90;;;;;;4972341;28;20044;-78
2021/11/29 04:31:43;;;;;;;4.78;3.17;;;-0.10;99.90;;;;;;4992524;28;20448;-79
2021/11/29 04:34:09;;;;;;;7.35;4.88;;;0.00;99.90;;;;;;4988245;28;20084;-78
2021/11/29 04:36:34;;;;;;;9.48;3.05;;;0.00;99.90;;;;;;4990870;28;20125;-79
2021/11/29 04:39:00;;;;;;;9.60;5.05;;;0.00;99.90;;;;;;5005044;28;20041;-79
2021/11/29 04:41:26;;;;;;;7.50;4.80;;;0.00;99.90;;;;;;5007768;28;20120;-79
2021/11/29 04:43:52;;;;;;;7.20;4.38;;;0.00;99.90;;;;;;4984369;28;20032;-79
2021/11/29 04:46:17;;;;;;;7.50;3.95;;;0.00;99.90;;;;;;4979059;28;20037;-79
2021/11/29 04:48:43;;;;;;;6.15;3.83;;;-0.10;99.90;;;;;;4973685;28;20037;-79
2021/11/29 04:51:09;;;;;;;4.85;3.03;;;-0.20;99.90;;;;;;5002664;28;20029;-79
2021/11/29 04:53:35;;;;;;;7.25;3.35;;;-0.10;99.90;;;;;;4989559;28;20037;-79
2021/11/29 04:56:00;;;;;;;8.75;4.55;;;0.00;99.90;;;;;;5005307;28;20044;-79
2021/11/29 04:58:26;;;;;;;3.47;2.10;;;0.00;99.90;;;;;;4975274;28;20033;-79
2021/11/29 05:00:52;;;;;;;5.63;3.42;;;0.00;99.90;;;;;;5005030;28;20024;-79
2021/11/29 05:03:19;;;;;;;3.97;2.25;;;0.00;99.90;;;;;;4991755;28;20029;-79
2021/11/29 05:05:44;;;;;;;5.32;2.83;;;0.00;99.90;;;;;;4990203;28;20056;-79
2021/11/29 05:08:10;;;;;;;7.90;3.58;;;0.10;99.90;;;;;;5002878;28;20516;-79
2021/11/29 05:10:35;;;;;;;2.35;1.50;;;0.00;99.90;;;;;;4987263;28;20125;-79
2021/11/29 05:13:01;;;;;;;6.93;1.73;;;0.00;99.90;;;;;;5009916;28;20133;-79
2021/11/29 05:15:26;;;;;;;3.67;2.72;;;0.10;99.90;;;;;;4979301;28;20043;-80
2021/11/29 05:17:52;;;;;;;6.80;2.92;;;0.10;99.90;;;;;;5010326;28;20121;-80
2021/11/29 05:20:17;;;;;;;4.72;2.25;;;0.10;99.90;;;;;;4999012;28;20124;-80
2021/11/29 05:22:43;;;;;;;1.85;1.33;;;0.10;99.90;;;;;;4994210;28;20037;-79
2021/11/29 05:25:09;;;;;;;4.40;2.75;;;0.10;99.90;;;;;;5009214;28;20037;-79
2021/11/29 05:27:34;;;;;;;4.38;2.53;;;0.10;99.90;;;;;;4969754;28;20124;-78
2021/11/29 05:30:01;;;;;;;5.88;3.50;;;0.20;99.90;;;;;;5010459;28;20056;-79
2021/11/29 05:32:26;;;;;;;2.60;1.60;;;0.20;99.90;;;;;;4988593;28;20061;-79
2021/11/29 05:34:52;;;;;;;7.57;4.30;;;0.20;99.90;;;;;;5006742;28;20061;-79
2021/11/29 05:37:17;;;;;;;6.55;3.03;;;0.20;99.90;;;;;;4977815;28;20501;-79
2021/11/29 05:39:43;;;;;;;6.10;3.60;;;0.30;99.90;;;;;;4994289;28;20623;-78
2021/11/29 05:42:09;;;;;;;4.32;2.55;;;0.40;99.90;;;;;;4991452;28;20041;-78
2021/11/29 05:44:34;;;;;;;8.95;5.00;;;0.30;99.90;;;;;;4992827;28;20081;-80
2021/11/29 05:47:00;;;;;;;8.32;3.58;;;0.30;99.90;;;;;;4973652;28;20636;-79
2021/11/29 05:49:25;;;;;;;5.93;2.72;;;0.40;99.90;;;;;;4994380;28;20036;-79
2021/11/29 05:51:51;;;;;;;3.80;2.63;;;0.40;99.90;;;;;;4990098;28;20091;-79
2021/11/29 05:54:16;;;;;;;8.75;3.22;;;0.40;99.90;;;;;;4975677;28;20117;-79
2021/11/29 05:56:42;;;;;;;8.05;4.60;;;0.40;99.90;;;;;;4992515;28;20056;-79
2021/11/29 05:59:07;;;;;;;6.03;3.08;;;0.40;99.90;;;;;;4977029;28;20052;-79
2021/11/29 06:01:34;;;;;;;4.47;2.63;;;0.40;99.90;;;;;;4977874;28;20076;-79
2021/11/29 06:04:00;;;;;;;2.38;1.60;;;0.40;99.90;;;;;;5008084;28;20034;-79
2021/11/29 06:06:25;;;;;;;6.30;3.00;;;0.40;99.90;;;;;;4993312;28;20044;-79
2021/11/29 06:08:51;;;;;;;4.38;2.05;;;0.40;99.90;;;;;;4987451;28;20030;-79
2021/11/29 06:11:16;;;;;;;4.97;2.47;;;0.40;99.90;;;;;;4990489;28;20033;-78
2021/11/29 06:13:42;;;;;;;2.47;2.28;;;0.40;99.90;;;;;;4985181;28;20540;-79
2021/11/29 06:16:08;;;;;;;3.72;2.58;;;0.40;99.90;;;;;;4994127;28;20401;-79
2021/11/29 06:18:33;;;;;;;5.47;3.65;;;0.50;99.90;;;;;;5006721;28;20037;-79
2021/11/29 06:20:59;;;;;;;3.20;2.50;;;0.50;99.90;;;;;;4971783;28;20555;-78
2021/11/29 06:23:24;;;;;;;13.27;3.03;;;0.50;99.90;;;;;;4978724;28;20030;-79
2021/11/29 06:25:50;;;;;;;11.40;2.60;;;0.50;99.90;;;;;;4996209;28;20038;-80
2021/11/29 06:28:15;;;;;;;4.35;2.75;;;0.50;99.90;;;;;;4975760;28;20489;-80
2021/11/29 06:30:41;;;;;;;4.30;1.35;;;0.50;99.90;;;;;;4989982;28;20087;-80
2021/11/29 06:33:07;;;;;;;6.13;3.38;;;0.60;99.90;;;;;;4977337;28;20033;-79
2021/11/29 06:35:33;;;;;;;6.75;3.38;;;0.60;99.90;;;;;;5000911;28;20076;-79
2021/11/29 06:38:01;;;;;;;3.58;2.30;;;0.60;99.90;;;;;;4985190;28;20066;-80
2021/11/29 06:40:27;;;;;;;2.22;1.27;;;0.50;99.90;;;;;;4992832;28;20041;-80
2021/11/29 06:42:53;;;;;;;3.50;2.38;;;0.60;99.90;;;;;;5009425;28;20059;-80
2021/11/29 06:45:19;;;;;;;6.60;3.13;;;0.60;99.90;;;;;;4973866;28;20034;-80
2021/11/29 06:47:45;;;;;;;8.18;3.45;;;0.60;99.90;;;;;;5006440;28;20037;-80
2021/11/29 06:50:11;;;;;;;4.82;2.75;;;0.70;99.90;;;;;;4977042;28;20477;-80
2021/11/29 06:52:36;;;;;;;4.03;2.10;;;0.60;99.90;;;;;;4978431;28;20528;-80
2021/11/29 06:55:03;;;;;;;2.30;1.77;;;0.70;99.90;;;;;;5006755;28;20285;-80
2021/11/29 06:57:29;;;;;;;1.33;1.23;;;0.70;99.90;;;;;;5008280;28;20102;-80
2021/11/29 06:59:55;;;;;;;6.00;3.17;;;0.70;99.90;;;;;;5002303;28;20544;-80
2021/11/29 07:02:26;;;;;;;12.55;2.30;;;0.70;99.90;;;;;;4980763;28;20034;-80
2021/11/29 07:04:53;;;;;;;2.17;1.95;;;0.70;99.90;;;;;;4977395;28;20682;-80
2021/11/29 07:07:18;;;;;;;6.05;3.00;;;0.70;99.90;;;;;;4977692;28;20037;-81
2021/11/29 07:09:44;;;;;;;4.20;2.13;;;0.70;99.90;;;;;;4992244;28;20037;-80
2021/11/29 07:12:10;;;;;;;14.38;3.35;;;0.70;99.90;;;;;;4989061;28;20363;-80
2021/11/29 07:14:35;;;;;;;3.08;2.67;;;0.70;99.90;;;;;;4971224;28;20382;-80
2021/11/29 07:17:02;;;;;;;6.20;3.10;;;0.70;99.90;;;;;;4979679;28;20034;-80
2021/11/29 07:19:27;;;;;;;10.82;3.38;;;0.70;99.90;;;;;;4973031;28;20508;-80
2021/11/29 07:21:55;;;;;;;4.82;1.80;;;0.70;99.90;;;;;;4990663;28;20419;-81
2021/11/29 07:24:20;;;;;;;1.90;1.33;;;0.70;99.90;;;;;;4974813;28;20549;-80
2021/11/29 07:26:46;;;;;;;6.13;3.92;;;0.70;99.90;;;;;;5006217;28;20087;-81
2021/11/29 07:29:14;;;;;;;4.50;3.60;;;0.80;99.90;;;;;;4990532;28;20478;-80
2021/11/29 07:31:40;;;;;;;5.10;2.78;;;0.80;99.90;;;;;;4976165;28;20033;-81
2021/11/29 07:34:05;;;;;;;3.38;2.50;;;0.80;99.90;;;;;;4985665;28;20525;-81
2021/11/29 07:36:31;;;;;;;6.50;2.35;;;0.80;99.90;;;;;;4992354;28;20045;-81
2021/11/29 07:38:56;;;;;;;2.22;1.85;;;0.80;99.90;;;;;;4987474;28;20037;-81
2021/11/29 07:41:23;;;;;;;5.05;2.83;;;0.80;99.90;;;;;;5009228;28;20028;-81
2021/11/29 07:43:48;;;;;;;3.38;1.80;;;0.80;99.90;;;;;;4975100;28;20121;-80
2021/11/29 07:46:17;;;;;;;6.60;3.97;;;0.80;99.90;;;;;;4988718;28;20159;-80
2021/11/29 07:48:42;;;;;;;3.72;2.13;;;0.80;99.90;;;;;;5006171;28;20033;-81
2021/11/29 07:51:08;;;;;;;7.70;1.63;;;0.80;99.90;;;;;;4988779;28;20374;-80
2021/11/29 07:53:35;;;;;;;4.55;3.22;;;0.80;99.90;;;;;;4986669;28;20072;-80
2021/11/29 07:56:00;;;;;;;5.07;3.22;;;0.80;99.90;;;;;;4976133;28;20507;-80
2021/11/29 07:58:26;;;;;;;5.38;2.45;;;0.90;99.90;;;;;;5007679;28;20063;-80
2021/11/29 08:00:52;;;;;;;5.57;2.83;;;0.90;99.90;;;;;;4991940;28;20116;-80
2021/11/29 08:03:18;;;;;;;3.30;3.00;;;0.90;99.90;;;;;;5007813;28;20468;-80
2021/11/29 08:05:44;;;;;;;8.00;2.88;;;0.90;99.90;;;;;;4988120;28;20033;-80
2021/11/29 08:08:10;;;;;;;4.53;3.40;;;1.00;99.90;;;;;;4988469;28;20072;-80
2021/11/29 08:10:37;;;;;;;2.05;1.67;;;1.00;99.90;;;;;;4966737;28;20410;-80
2021/11/29 08:13:03;;;;;;;6.18;3.20;;;1.00;99.90;;;;;;5001169;28;20109;-80
2021/11/29 08:15:28;;;;;;;6.60;3.20;;;1.00;99.90;;;;;;4974274;28;20546;-80
2021/11/29 08:17:54;;;;;;;3.05;2.30;;;1.10;99.90;;;;;;4976216;28;20037;-80
2021/11/29 08:20:22;;;;;;;5.63;2.72;;;1.10;99.90;;;;;;5007283;28;20489;-80
2021/11/29 08:22:47;;;;;;;6.25;3.00;;;1.10;99.90;;;;;;4977605;28;20033;-80
2021/11/29 08:25:13;;;;;;;4.70;3.53;;;1.10;99.90;;;;;;4976043;28;20083;-80
2021/11/29 08:27:40;;;;;;;6.80;4.20;;;1.10;99.90;;;;;;4975678;28;20045;-80
2021/11/29 08:30:08;;;;;;;5.35;4.20;;;1.10;99.90;;;;;;5003959;28;20038;-80
2021/11/29 08:32:34;;;;;;;4.60;3.38;;;1.20;99.90;;;;;;5006625;28;20077;-81
2021/11/29 08:34:59;;;;;;;4.80;3.10;;;1.20;99.90;;;;;;5004368;28;20040;-78
2021/11/29 08:37:25;;;;;;;6.38;3.58;;;1.20;99.90;;;;;;4991040;28;20034;-80
2021/11/29 08:39:51;;;;;;;7.22;3.90;;;1.20;99.90;;;;;;4989148;28;20115;-85
2021/11/29 08:42:16;;;;;;;7.47;5.18;;;1.30;99.90;;;;;;4975626;28;20036;-79
2021/11/29 08:44:42;;;;;;;6.72;4.97;;;1.30;99.90;;;;;;4989542;28;20511;-80
2021/11/29 08:47:08;;;;;;;9.13;5.50;;;1.30;99.90;;;;;;4987367;28;20033;-80
2021/11/29 08:49:33;;;;;;;5.25;3.97;;;1.30;99.90;;;;;;4974612;28;20037;-80
2021/11/29 08:51:59;;;;;;;7.53;4.80;;;1.30;99.90;;;;;;5005829;28;20048;-80
2021/11/29 08:54:24;;;;;;;2.42;1.98;;;1.30;99.90;;;;;;5007498;28;20076;-80
2021/11/29 08:56:50;;;;;;;10.02;6.28;;;1.40;99.90;;;;;;5002626;28;20030;-80
2021/11/29 08:59:16;;;;;;;5.30;2.67;;;1.40;99.90;;;;;;4975243;28;20061;-80
2021/11/29 09:01:42;;;;;;;7.88;6.60;;;1.40;99.90;;;;;;5001107;28;20048;-81
2021/11/29 09:04:08;;;;;;;9.18;6.43;;;1.40;99.90;;;;;;4973008;28;20022;-80
2021/11/29 09:06:33;;;;;;;7.70;5.80;;;1.50;99.90;;;;;;4974264;28;20045;-80
2021/11/29 09:08:59;;;;;;;11.25;5.60;;;1.50;99.90;;;;;;4988848;28;20036;-80
2021/11/29 09:11:24;;;;;;;7.63;6.47;;;1.50;99.90;;;;;;5005646;28;20439;-80
2021/11/29 09:13:50;;;;;;;9.77;7.10;;;1.40;99.90;;;;;;5006266;28;20554;-80
2021/11/29 09:16:16;;;;;;;10.40;7.80;;;1.40;99.90;;;;;;4993246;28;20026;-80
2021/11/29 09:18:45;;;;;;;5.57;3.80;;;1.50;99.90;;;;;;4975509;28;20524;-81
2021/11/29 09:21:11;;;;;;;6.10;3.92;;;1.50;99.90;;;;;;4974319;28;20033;-81
2021/11/29 09:23:38;;;;;;;10.50;5.13;;;1.50;99.90;;;;;;4988292;28;20036;-81
2021/11/29 09:26:04;;;;;;;9.27;7.60;;;1.50;99.90;;;;;;5005835;28;20061;-81
2021/11/29 09:28:29;;;;;;;9.40;5.97;;;1.50;99.90;;;;;;4972168;28;20516;-81
2021/11/29 09:30:56;;;;;;;12.60;7.28;;;1.50;99.90;;;;;;4989062;28;20029;-81
2021/11/29 09:33:22;;;;;;;8.40;7.07;;;1.50;99.90;;;;;;4989718;28;20440;-80
2021/11/29 09:35:48;;;;;;;10.02;6.13;;;1.50;99.90;;;;;;4970247;28;20085;-80
2021/11/29 09:38:13;;;;;;;11.23;7.15;;;1.50;99.90;;;;;;4990633;28;20063;-81
2021/11/29 09:40:39;;;;;;;11.50;8.65;;;1.50;99.90;;;;;;5004334;28;20034;-81
2021/11/29 09:43:08;;;;;;;8.73;6.63;;;1.50;99.90;;;;;;4995937;28;20026;-80
2021/11/29 09:45:44;;;;;;;10.32;8.18;;;1.60;99.90;;;;;;4973686;28;20482;-82
2021/11/29 09:48:09;;;;;;;12.38;8.52;;;1.60;99.90;;;;;;4984891;28;20063;-80
2021/11/29 09:50:36;;;;;;;12.98;8.00;;;1.60;99.90;;;;;;4987145;28;20025;-80
2021/11/29 09:53:02;;;;;;;14.20;8.70;;;1.60;99.90;;;;;;4978643;28;20042;-80
2021/11/29 09:55:28;;;;;;;16.38;10.70;;;1.60;99.90;;;;;;4979161;28;20044;-80
2021/11/29 09:57:54;;;;;;;16.90;10.70;;;1.60;99.90;;;;;;5000468;28;20026;-80
2021/11/29 10:00:28;;;;;;;18.02;10.25;;;1.60;99.90;;;;;;4993020;28;20025;-80
2021/11/29 10:02:53;;;;;;;18.50;11.85;;;1.70;99.90;;;;;;4978770;28;20067;-80
2021/11/29 10:05:19;;;;;;;22.45;14.50;;;1.70;99.90;;;;;;4991000;28;20436;-80
2021/11/29 10:07:48;;;;;;;28.05;15.60;;;1.70;99.90;;;;;;4987021;28;20538;-81
2021/11/29 10:10:19;;;;;;;30.65;18.67;;;1.80;99.90;;;;;;4992697;28;20025;-80
2021/11/29 10:12:48;;;;;;;30.58;17.80;;;1.80;99.90;;;;;;4976211;28;20060;-80
2021/11/29 10:15:25;;;;;;;14.90;9.35;;;1.90;99.90;;;;;;4978621;28;20393;-80
2021/11/29 10:18:01;;;;;;;29.55;18.42;;;1.90;99.90;;;;;;5025445;28;20057;-80
2021/11/29 10:20:30;;;;;;;22.02;15.30;;;1.90;99.90;;;;;;4994051;28;20400;-80
2021/11/29 10:23:05;;;;;;;30.95;19.48;;;1.90;99.90;;;;;;5003312;28;20446;-81
2021/11/29 10:25:30;;;;;;;25.00;14.82;;;1.90;99.90;;;;;;4984735;28;20042;-81
2021/11/29 10:27:56;;;;;;;30.17;18.45;;;1.90;99.90;;;;;;4976586;28;20398;-81
2021/11/29 10:30:25;;;;;;;32.15;19.15;;;2.00;99.90;;;;;;4989950;28;20240;-81
2021/11/29 10:32:52;;;;;;;34.72;20.98;;;2.00;99.90;;;;;;4989923;28;20489;-81
2021/11/29 10:35:33;;;;;;;36.30;22.23;;;2.00;99.90;;;;;;4991653;28;20080;-81
2021/11/29 10:37:59;;;;;;;38.10;23.90;;;2.00;99.90;;;;;;4988345;28;20056;-81
2021/11/29 10:40:25;;;;;;;40.85;20.52;;;2.10;99.90;;;;;;4974946;28;20079;-81
2021/11/29 10:42:50;;;;;;;35.22;21.52;;;2.10;99.90;;;;;;5001174;28;20034;-81
2021/11/29 10:45:23;;;;;;;41.40;22.63;;;2.10;99.90;;;;;;4989169;28;20036;-80
2021/11/29 10:47:53;;;;;;;39.30;21.40;;;2.20;99.90;;;;;;4970597;28;20112;-80
2021/11/29 10:50:26;;;;;;;55.75;28.55;;;2.20;99.90;;;;;;5000167;28;20057;-80
2021/11/29 10:53:09;;;;;;;55.60;28.42;;;2.30;99.90;;;;;;4982006;28;20045;-80
2021/11/29 10:55:58;;;;;;;50.67;24.58;;;2.30;99.90;;;;;;4997926;28;20030;-80
2021/11/29 10:58:25;;;;;;;47.55;25.35;;;2.40;99.90;;;;;;4987298;28;20037;-80
2021/11/29 11:00:51;;;;;;;47.10;24.05;;;2.40;99.90;;;;;;4987831;28;20088;-80
2021/11/29 11:03:16;;;;;;;30.80;18.42;;;2.50;99.90;;;;;;5007457;28;20553;-80
2021/11/29 11:06:01;;;;;;;32.28;17.73;;;2.50;99.90;;;;;;4987052;28;20083;-80
2021/11/29 11:08:33;;;;;;;45.83;23.65;;;2.60;99.90;;;;;;4987140;28;20040;-80
2021/11/29 11:10:59;;;;;;;33.60;19.95;;;2.60;99.90;;;;;;4982349;28;20041;-80
2021/11/29 11:13:25;;;;;;;43.08;23.25;;;2.70;99.90;;;;;;4974944;28;20030;-82
2021/11/29 11:15:50;;;;;;;47.63;25.85;;;2.70;99.90;;;;;;4972562;28;20041;-81
2021/11/29 11:18:16;;;;;;;40.72;23.08;;;2.90;99.90;;;;;;4990905;28;20121;-80
2021/11/29 11:20:41;;;;;;;44.15;24.73;;;2.80;99.90;;;;;;4986244;28;20087;-80
2021/11/29 11:23:07;;;;;;;41.95;22.02;;;2.90;99.90;;;;;;4976568;28;20406;-80
2021/11/29 11:25:35;;;;;;;45.60;26.02;;;2.90;99.90;;;;;;4990002;28;20464;-80
2021/11/29 11:28:03;;;;;;;45.53;23.75;;;3.00;99.90;;;;;;4973042;28;20049;-80
2021/11/29 11:30:29;;;;;;;34.00;18.60;;;3.00;99.90;;;;;;4987922;28;20124;-80
2021/11/29 11:33:00;;;;;;;41.50;21.83;;;3.00;99.90;;;;;;4991155;28;20037;-80
2021/11/29 11:35:32;;;;;;;28.40;17.88;;;3.00;99.90;;;;;;5006227;28;20462;-80
2021/11/29 11:37:59;;;;;;;32.53;18.00;;;3.00;99.90;;;;;;4986803;28;20030;-80
2021/11/29 11:40:33;;;;;;;24.40;14.75;;;3.10;99.90;;;;;;4973375;28;20053;-80
2021/11/29 11:42:59;;;;;;;21.05;13.10;;;3.10;99.90;;;;;;4985272;28;20045;-80
2021/11/29 11:45:26;;;;;;;22.88;12.52;;;3.10;99.90;;;;;;4991105;28;20167;-80
2021/11/29 11:47:53;;;;;;;17.35;11.95;;;3.20;99.90;;;;;;4984600;28;20038;-80
2021/11/29 11:50:22;;;;;;;22.67;11.70;;;3.20;99.90;;;;;;4987528;28;20037;-80
2021/11/29 11:52:48;;;;;;;18.90;12.70;;;3.30;99.90;;;;;;4998024;28;20084;-80
2021/11/29 11:55:16;;;;;;;21.48;10.85;;;3.30;99.90;;;;;;4981696;28;20124;-80
2021/11/29 11:57:42;;;;;;;16.80;10.38;;;3.30;99.90;;;;;;4644576;28;10000167;-80
2021/11/29 12:00:34;;;;;;;14.48;7.63;;;3.40;99.90;;;;;;4983557;28;20033;-80
2021/11/29 12:03:04;;;;;;;15.82;8.52;;;3.50;99.90;;;;;;5003328;28;20172;-80
2021/11/29 12:05:32;;;;;;;13.45;8.10;;;3.60;99.90;;;;;;5000446;28;20352;-80
2021/11/29 12:07:57;;;;;;;9.60;6.68;;;3.50;99.90;;;;;;4993632;28;20045;-80
2021/11/29 12:10:43;;;;;;;21.92;9.13;;;3.50;99.90;;;;;;4995908;28;20413;-80
2021/11/29 12:13:14;;;;;;;13.90;8.90;;;3.60;99.90;;;;;;4973506;28;20548;-79
2021/11/29 12:15:48;;;;;;;12.13;8.25;;;3.60;99.90;;;;;;4966246;28;20030;-80
2021/11/29 12:18:38;;;;;;;12.60;7.80;;;3.60;99.90;;;;;;4998596;28;20113;-80
2021/11/29 12:21:19;;;;;;;12.85;8.45;;;3.60;99.90;;;;;;5005225;28;20055;-79
2021/11/29 12:23:46;;;;;;;11.85;7.57;;;3.70;99.90;;;;;;4968458;28;20048;-80
2021/11/29 12:26:12;;;;;;;8.05;6.65;;;3.70;99.90;;;;;;4995255;28;20037;-81
2021/11/29 12:28:42;;;;;;;11.23;7.00;;;3.70;99.90;;;;;;4987410;28;20293;-80
2021/11/29 12:31:37;;;;;;;7.75;5.53;;;3.70;99.90;;;;;;4968492;28;20025;-80
2021/11/29 12:34:08;;;;;;;8.52;6.30;;;3.80;99.90;;;;;;4996916;28;20022;-79
2021/11/29 12:37:00;;;;;;;10.60;6.93;;;3.90;99.90;;;;;;5003394;28;20025;-80
2021/11/29 12:39:49;;;;;;;12.32;7.45;;;4.00;99.90;;;;;;4975166;28;20517;-80
2021/11/29 12:42:22;;;;;;;11.48;6.60;;;3.90;99.90;;;;;;5005133;28;20029;-79
2021/11/29 12:45:09;;;;;;;12.23;6.65;;;4.00;99.90;;;;;;4996530;28;20224;-80
2021/11/29 12:47:46;;;;;;;11.45;6.80;;;4.00;99.90;;;;;;5001232;28;20047;-79